Terminal Aerodrome Forecast
Issued by NWS Sterling, VA

Current Version | Previous Version | Graphics & Text | Print | Product List | Glossary On
Versions: 1 2 3 4 5 6 7 8 9 10 11 12 13 14 15 16 17 18 19 20 21 22 23 24 25 26
704
FTUS41 KLWX 032331
TAFIAD
TAF
KIAD 032331Z 0400/0506 09008KT P6SM -SHRA VCTS BKN050CB
     FM040200 05004KT P6SM -SHRA OVC025
     FM040300 05004KT P6SM OVC015
     FM040400 05004KT P6SM OVC008
     FM041600 07005KT P6SM BKN015
     FM042000 08005KT P6SM BKN060
     FM050100 08005KT P6SM OVC015
     FM050500 06004KT P6SM OVC008=

USA.gov is the U.S. government's official web portal to all federal, state and local government web resources and services.